Time;durP1;ratioP1;P1;durP2;ratioP2;P2;SDS_P1;SDS_P2;PMS_P1;PMS_P2;Temp;Humidity;BMP_temperature;BMP_pressure;BME280_temperature;BME280_humidity;BME280_pressure;Samples;Min_cycle;Max_cycle;Signal;HPM_P1;HPM_P2
2023/01/07 00:01:18;;;;;;;111.63;31.65;;;7.90;99.90;;;;;;5115181;28;20043;-77
2023/01/07 00:03:45;;;;;;;107.65;32.83;;;8.10;99.90;;;;;;5115416;28;20151;-78
2023/01/07 00:06:13;;;;;;;102.35;33.00;;;8.10;99.90;;;;;;5115246;28;20087;-77
2023/01/07 00:08:41;;;;;;;116.45;33.20;;;8.30;99.90;;;;;;5096956;28;20579;-77
2023/01/07 00:11:15;;;;;;;131.43;34.95;;;8.40;99.90;;;;;;5115071;28;20132;-77
2023/01/07 00:13:42;;;;;;;120.75;35.75;;;8.00;99.90;;;;;;5115129;28;20039;-77
2023/01/07 00:16:11;;;;;;;127.55;35.20;;;8.60;99.90;;;;;;5079753;28;20051;-77
2023/01/07 00:18:37;;;;;;;113.75;35.58;;;8.40;99.90;;;;;;5096899;28;20054;-77
2023/01/07 00:21:06;;;;;;;136.48;36.88;;;8.40;99.90;;;;;;5114941;28;20039;-77
2023/01/07 00:23:33;;;;;;;133.35;38.42;;;8.60;99.90;;;;;;5114406;28;20131;-77
2023/01/07 00:26:04;;;;;;;144.35;37.22;;;8.60;99.90;;;;;;5114876;28;20048;-77
2023/01/07 00:28:31;;;;;;;152.13;37.58;;;8.50;99.90;;;;;;5096772;28;20054;-77
2023/01/07 00:31:07;;;;;;;143.27;38.08;;;8.70;99.90;;;;;;5114481;28;20047;-79
2023/01/07 00:33:42;;;;;;;163.02;38.33;;;8.70;99.90;;;;;;5114784;28;20044;-78
2023/01/07 00:36:09;;;;;;;162.98;40.45;;;8.70;99.90;;;;;;5114788;28;20127;-78
2023/01/07 00:38:36;;;;;;;168.10;38.70;;;8.50;99.90;;;;;;5114588;28;20052;-78
2023/01/07 00:41:03;;;;;;;190.73;41.33;;;8.60;99.90;;;;;;5096495;28;20060;-78
2023/01/07 00:43:29;;;;;;;191.98;40.90;;;9.00;99.90;;;;;;5114247;28;20556;-78
2023/01/07 00:45:54;;;;;;;153.77;37.90;;;8.90;99.90;;;;;;5114338;28;20075;-78
2023/01/07 00:48:22;;;;;;;165.38;37.25;;;8.70;99.90;;;;;;5114478;28;20507;-78
2023/01/07 00:50:49;;;;;;;185.07;40.42;;;9.10;99.90;;;;;;5095854;28;20126;-79
2023/01/07 00:53:14;;;;;;;168.20;40.80;;;9.10;99.90;;;;;;5096431;28;20396;-78
2023/01/07 00:55:40;;;;;;;170.57;39.40;;;9.30;99.90;;;;;;5114512;28;20047;-79
2023/01/07 00:58:06;;;;;;;186.50;38.90;;;9.20;99.90;;;;;;5096144;28;20050;-77
2023/01/07 01:00:32;;;;;;;209.45;41.97;;;9.10;99.90;;;;;;5113992;28;20051;-78
2023/01/07 01:02:58;;;;;;;229.73;41.88;;;9.00;99.90;;;;;;5096181;28;20044;-77
2023/01/07 01:05:24;;;;;;;188.20;38.97;;;9.60;99.90;;;;;;5114298;28;20055;-77
2023/01/07 01:07:50;;;;;;;212.30;40.55;;;9.10;99.90;;;;;;5114344;28;20147;-77
2023/01/07 01:10:19;;;;;;;188.25;38.97;;;9.30;99.90;;;;;;5114288;28;20044;-77
2023/01/07 01:12:48;;;;;;;184.10;38.38;;;9.40;99.90;;;;;;5114119;28;20115;-79
2023/01/07 01:15:15;;;;;;;189.13;38.10;;;9.10;99.90;;;;;;5113701;28;20047;-78
2023/01/07 01:17:41;;;;;;;170.18;37.60;;;9.30;99.90;;;;;;5114062;28;20056;-77
2023/01/07 01:20:11;;;;;;;159.00;36.17;;;9.50;99.90;;;;;;5095929;28;20051;-77
2023/01/07 01:22:37;;;;;;;153.45;35.53;;;9.50;99.90;;;;;;5113876;28;20131;-78
2023/01/07 01:25:03;;;;;;;175.00;36.50;;;9.30;99.90;;;;;;5095720;28;20130;-77
2023/01/07 01:27:30;;;;;;;159.90;35.15;;;9.40;99.90;;;;;;5114020;28;20048;-77
2023/01/07 01:29:57;;;;;;;161.70;35.88;;;9.60;99.90;;;;;;5113440;28;20040;-77
2023/01/07 01:32:22;;;;;;;149.35;34.08;;;9.40;99.90;;;;;;5113673;28;20094;-77
2023/01/07 01:34:48;;;;;;;114.32;31.98;;;9.60;99.90;;;;;;5112781;28;20090;-77
2023/01/07 01:37:14;;;;;;;139.35;34.13;;;9.90;99.90;;;;;;5095543;28;20055;-79
2023/01/07 01:39:39;;;;;;;139.38;33.83;;;9.50;99.90;;;;;;5113816;28;20040;-78
2023/01/07 01:42:08;;;;;;;120.50;33.53;;;9.70;99.90;;;;;;5113462;28;20047;-79
2023/01/07 01:44:49;;;;;;;118.40;31.80;;;9.70;99.90;;;;;;5113385;28;20043;-78
2023/01/07 01:47:35;;;;;;;107.80;31.75;;;9.70;99.90;;;;;;5113455;28;20051;-79
2023/01/07 01:50:09;;;;;;;112.37;31.70;;;9.90;99.90;;;;;;5113100;28;20452;-80
2023/01/07 01:52:41;;;;;;;85.53;31.25;;;9.80;99.90;;;;;;5113292;28;20055;-80
2023/01/07 01:55:09;;;;;;;94.72;32.50;;;10.00;99.90;;;;;;5113174;28;20051;-79
2023/01/07 01:57:36;;;;;;;95.03;33.03;;;10.40;99.90;;;;;;5094821;28;20048;-79
2023/01/07 02:00:04;;;;;;;85.90;32.22;;;9.90;99.90;;;;;;5078129;28;20052;-79
2023/01/07 02:02:39;;;;;;;86.88;32.75;;;10.00;99.90;;;;;;5112927;28;20130;-79
2023/01/07 02:05:07;;;;;;;89.15;32.80;;;10.30;99.90;;;;;;5094980;28;20051;-81
2023/01/07 02:07:32;;;;;;;88.13;31.65;;;10.30;99.90;;;;;;5112903;28;20052;-79
2023/01/07 02:10:12;;;;;;;85.47;34.63;;;10.30;99.90;;;;;;5113107;28;20039;-79
2023/01/07 02:13:10;;;;;;;89.47;34.53;;;10.20;99.90;;;;;;5112657;28;20057;-79
2023/01/07 02:16:02;;;;;;;83.00;33.50;;;10.40;99.90;;;;;;5112795;28;20070;-78
2023/01/07 02:18:38;;;;;;;77.72;34.17;;;10.20;99.90;;;;;;5081281;28;20070;-78
2023/01/07 02:21:36;;;;;;;69.82;32.80;;;10.20;99.90;;;;;;5112839;28;20391;-79
2023/01/07 02:24:31;;;;;;;74.00;34.08;;;10.40;99.90;;;;;;5077338;28;20138;-78
2023/01/07 02:27:00;;;;;;;60.88;33.22;;;10.20;99.90;;;;;;5112461;28;20058;-78
2023/01/07 02:29:44;;;;;;;60.65;31.50;;;10.20;99.90;;;;;;5112510;28;20449;-78
2023/01/07 02:32:16;;;;;;;61.95;31.60;;;10.30;99.90;;;;;;5112550;28;20059;-79
2023/01/07 02:34:41;;;;;;;63.65;30.95;;;10.30;99.90;;;;;;5112574;28;20149;-78
2023/01/07 02:37:27;;;;;;;60.63;32.28;;;10.30;99.90;;;;;;5112543;28;20134;-77
2023/01/07 02:40:37;;;;;;;59.70;32.58;;;10.50;99.90;;;;;;5094521;28;20441;-78
2023/01/07 02:43:16;;;;;;;59.42;31.88;;;10.20;99.90;;;;;;5009562;28;20053;-77
2023/01/07 02:45:47;;;;;;;60.90;32.17;;;10.20;99.90;;;;;;5099294;28;20052;-78
2023/01/07 02:48:15;;;;;;;58.63;31.70;;;10.10;99.90;;;;;;5112470;28;20145;-78
2023/01/07 02:50:41;;;;;;;60.97;32.47;;;10.30;99.90;;;;;;5093694;28;20068;-80
2023/01/07 02:53:11;;;;;;;57.28;32.08;;;10.30;99.90;;;;;;5094313;28;20047;-76
2023/01/07 02:56:01;;;;;;;53.25;31.30;;;10.30;99.90;;;;;;5094265;28;20372;-78
2023/01/07 02:59:01;;;;;;;53.97;31.60;;;10.50;99.90;;;;;;5112636;28;20044;-77
2023/01/07 03:01:58;;;;;;;53.53;30.75;;;10.20;99.90;;;;;;5112422;28;20039;-77
2023/01/07 03:04:36;;;;;;;50.17;30.63;;;10.60;99.90;;;;;;5094220;28;20421;-78
2023/01/07 03:07:20;;;;;;;50.47;30.55;;;10.40;99.90;;;;;;5112393;28;20047;-80
2023/01/07 03:10:29;;;;;;;49.38;29.90;;;10.40;99.90;;;;;;5111743;28;20476;-79
2023/01/07 03:13:07;;;;;;;47.45;30.48;;;10.50;99.90;;;;;;5009912;28;20049;-78
2023/01/07 03:15:40;;;;;;;43.05;29.45;;;10.40;99.90;;;;;;5099635;28;20059;-75
2023/01/07 03:18:18;;;;;;;41.03;29.30;;;10.40;99.90;;;;;;5094552;28;20726;-77
2023/01/07 03:20:47;;;;;;;41.08;27.60;;;10.70;99.90;;;;;;5111972;28;20497;-75
2023/01/07 03:23:16;;;;;;;40.08;27.75;;;10.40;99.90;;;;;;5112426;28;20043;-76
2023/01/07 03:25:49;;;;;;;41.38;28.45;;;10.40;99.90;;;;;;5112104;28;20439;-74
2023/01/07 03:28:18;;;;;;;40.25;28.42;;;10.60;99.90;;;;;;5112276;28;20052;-76
2023/01/07 03:30:45;;;;;;;42.05;27.17;;;10.60;99.90;;;;;;5111721;28;20484;-78
2023/01/07 03:33:16;;;;;;;46.83;28.27;;;10.40;99.90;;;;;;5093797;28;20050;-76
2023/01/07 03:35:46;;;;;;;40.03;26.63;;;10.20;99.90;;;;;;5112145;28;20058;-79
2023/01/07 03:38:13;;;;;;;40.13;28.30;;;10.60;99.90;;;;;;5093450;28;20404;-78
2023/01/07 03:40:39;;;;;;;33.67;25.00;;;10.40;99.90;;;;;;5093991;28;20052;-78
2023/01/07 03:43:11;;;;;;;34.10;23.52;;;11.00;99.90;;;;;;5112076;28;20403;-77
2023/01/07 03:45:37;;;;;;;34.40;23.95;;;10.70;99.90;;;;;;5111986;28;20078;-77
2023/01/07 03:48:03;;;;;;;35.78;24.23;;;10.60;99.90;;;;;;5112086;28;20452;-78
2023/01/07 03:50:29;;;;;;;33.97;23.65;;;10.50;99.90;;;;;;5076525;28;20047;-77
2023/01/07 03:52:54;;;;;;;33.67;24.17;;;10.50;99.90;;;;;;5094032;28;20049;-76
2023/01/07 03:55:20;;;;;;;36.70;24.38;;;10.60;99.90;;;;;;5112279;28;20058;-77
2023/01/07 03:57:46;;;;;;;32.70;23.45;;;10.70;99.90;;;;;;5062809;28;20130;-76
2023/01/07 04:00:13;;;;;;;31.58;22.67;;;10.40;99.90;;;;;;5116055;28;20044;-80
2023/01/07 04:02:39;;;;;;;37.83;24.80;;;10.50;99.90;;;;;;5080703;28;20043;-77
2023/01/07 04:05:05;;;;;;;32.05;23.83;;;10.20;99.90;;;;;;5097297;28;20076;-77
2023/01/07 04:07:31;;;;;;;36.42;25.15;;;10.60;99.90;;;;;;5097128;28;20052;-78
2023/01/07 04:09:56;;;;;;;36.88;24.23;;;10.70;99.90;;;;;;5097239;28;20070;-78
2023/01/07 04:12:22;;;;;;;32.63;25.08;;;10.30;99.90;;;;;;5097111;28;20074;-78
2023/01/07 04:14:48;;;;;;;39.97;26.83;;;10.40;99.90;;;;;;5115209;28;20060;-77
2023/01/07 04:17:13;;;;;;;35.92;26.48;;;10.30;99.90;;;;;;5080475;28;20052;-76
2023/01/07 04:19:39;;;;;;;34.97;25.23;;;10.50;99.90;;;;;;5115559;28;20044;-76
2023/01/07 04:22:06;;;;;;;35.35;25.20;;;10.20;99.90;;;;;;5080198;28;20094;-77
2023/01/07 04:24:32;;;;;;;38.13;26.98;;;10.30;99.90;;;;;;5115091;28;20335;-78
2023/01/07 04:26:58;;;;;;;37.08;26.17;;;10.70;99.90;;;;;;5115375;28;20051;-77
2023/01/07 04:29:23;;;;;;;37.42;25.88;;;10.30;99.90;;;;;;5114960;28;20063;-78
2023/01/07 04:31:49;;;;;;;38.90;25.52;;;10.30;99.90;;;;;;5096693;28;20135;-77
2023/01/07 04:34:15;;;;;;;37.40;24.88;;;10.50;99.90;;;;;;5114963;28;20058;-77
2023/01/07 04:36:40;;;;;;;39.55;25.50;;;10.50;99.90;;;;;;5096513;28;20557;-78
2023/01/07 04:39:06;;;;;;;35.85;24.83;;;10.00;99.90;;;;;;5115203;28;20054;-77
2023/01/07 04:41:32;;;;;;;36.88;25.38;;;10.20;99.90;;;;;;5096854;28;20055;-79
2023/01/07 04:43:57;;;;;;;37.55;25.70;;;10.30;99.90;;;;;;5096756;28;20089;-79
2023/01/07 04:46:24;;;;;;;42.42;25.08;;;10.20;99.90;;;;;;5080049;28;20365;-78
2023/01/07 04:48:50;;;;;;;40.80;26.27;;;10.20;99.90;;;;;;5114680;28;20454;-78
2023/01/07 04:51:15;;;;;;;36.63;24.75;;;10.10;99.90;;;;;;5114426;28;20079;-80
2023/01/07 04:53:41;;;;;;;40.05;25.33;;;10.20;99.90;;;;;;5096528;28;20082;-80
2023/01/07 04:56:07;;;;;;;42.78;27.30;;;10.00;99.90;;;;;;5114864;28;20051;-77
2023/01/07 04:58:33;;;;;;;43.53;26.25;;;9.90;99.90;;;;;;5114717;28;20051;-80
2023/01/07 05:00:59;;;;;;;41.08;26.60;;;10.10;99.90;;;;;;5096508;28;20043;-78
2023/01/07 05:03:25;;;;;;;38.35;26.20;;;9.90;99.90;;;;;;5079654;28;20040;-77
2023/01/07 05:05:51;;;;;;;39.85;25.88;;;9.90;99.90;;;;;;5114148;28;20050;-77
2023/01/07 05:08:17;;;;;;;43.85;26.23;;;10.00;99.90;;;;;;5096290;28;20538;-77
2023/01/07 05:10:42;;;;;;;42.45;26.58;;;9.90;99.90;;;;;;5079169;28;20052;-78
2023/01/07 05:13:14;;;;;;;40.85;26.15;;;10.00;99.90;;;;;;5114005;28;20135;-78
2023/01/07 05:15:40;;;;;;;44.65;26.50;;;10.10;99.90;;;;;;5096127;28;20100;-77
2023/01/07 05:18:06;;;;;;;40.55;26.77;;;9.80;99.90;;;;;;5114257;28;20122;-78
2023/01/07 05:20:31;;;;;;;46.58;27.20;;;10.20;99.90;;;;;;5095906;28;20043;-77
2023/01/07 05:22:57;;;;;;;43.28;26.80;;;10.10;99.90;;;;;;5095998;28;20444;-77
2023/01/07 05:25:23;;;;;;;44.15;27.65;;;9.90;99.90;;;;;;5113854;28;20058;-80
2023/01/07 05:27:48;;;;;;;41.67;26.80;;;9.90;99.90;;;;;;5095797;28;20059;-80
2023/01/07 05:30:14;;;;;;;41.30;26.10;;;10.30;99.90;;;;;;5095567;28;20043;-81
2023/01/07 05:32:40;;;;;;;40.50;26.02;;;10.00;99.90;;;;;;5078699;28;20369;-78
2023/01/07 05:35:06;;;;;;;41.10;27.20;;;9.80;99.90;;;;;;5113410;28;20044;-78
2023/01/07 05:37:32;;;;;;;39.45;25.60;;;10.00;99.90;;;;;;5095556;28;20052;-78
2023/01/07 05:39:58;;;;;;;;;;;8.80;99.90;;;;;;5079010;28;20090;-80
2023/01/07 05:42:24;;;;;;;42.47;27.08;;;10.40;99.90;;;;;;5095273;28;19963;-79
2023/01/07 05:44:49;;;;;;;38.30;25.52;;;10.30;99.90;;;;;;5113511;28;20058;-83
2023/01/07 05:47:15;;;;;;;42.03;27.00;;;10.30;99.90;;;;;;5095397;28;20050;-80
2023/01/07 05:49:41;;;;;;;41.08;25.67;;;10.40;99.90;;;;;;5094638;28;20051;-81
2023/01/07 05:52:07;;;;;;;41.15;25.55;;;10.30;99.90;;;;;;5095009;28;20127;-80
2023/01/07 05:54:32;;;;;;;38.53;25.75;;;10.30;99.90;;;;;;5113316;28;20067;-79
2023/01/07 05:57:01;;;;;;;40.58;25.52;;;10.30;99.90;;;;;;5113223;28;20047;-79
2023/01/07 05:59:27;;;;;;;37.97;25.20;;;10.40;99.90;;;;;;5095186;28;20096;-79
2023/01/07 06:01:52;;;;;;;38.13;24.33;;;10.30;99.90;;;;;;5094934;28;20055;-79
2023/01/07 06:04:18;;;;;;;41.00;24.05;;;10.10;99.90;;;;;;5113236;28;20087;-80
2023/01/07 06:06:44;;;;;;;35.80;24.50;;;10.10;99.90;;;;;;5113058;28;20048;-81
2023/01/07 06:09:10;;;;;;;35.85;23.25;;;9.90;99.90;;;;;;5094959;28;20047;-79
2023/01/07 06:11:35;;;;;;;;;;;9.90;99.90;;;;;;5095315;28;20131;-80
2023/01/07 06:14:01;;;;;;;35.80;22.73;;;9.60;99.90;;;;;;5112944;28;20002;-80
2023/01/07 06:16:27;;;;;;;36.50;22.85;;;9.80;99.90;;;;;;5094784;28;20399;-79
2023/01/07 06:18:53;;;;;;;37.25;23.67;;;9.70;99.90;;;;;;5094696;28;20047;-78
2023/01/07 06:21:20;;;;;;;43.97;22.95;;;10.00;99.90;;;;;;5112403;28;20039;-81
2023/01/07 06:23:46;;;;;;;36.17;22.65;;;9.80;99.90;;;;;;5094431;28;20052;-77
2023/01/07 06:26:11;;;;;;;35.60;23.60;;;10.00;99.90;;;;;;5112676;28;20047;-79
2023/01/07 06:28:37;;;;;;;33.50;22.55;;;9.60;99.90;;;;;;5112659;28;20055;-78
2023/01/07 06:31:03;;;;;;;36.80;22.05;;;9.70;99.90;;;;;;5112642;28;20043;-80
2023/01/07 06:33:28;;;;;;;36.63;23.48;;;9.50;99.90;;;;;;5112352;28;20047;-79
2023/01/07 06:35:54;;;;;;;39.20;22.00;;;9.80;99.90;;;;;;5112501;28;20495;-79
2023/01/07 06:38:20;;;;;;;39.08;22.40;;;9.60;99.90;;;;;;5077546;28;20051;-81
2023/01/07 06:40:46;;;;;;;35.60;22.13;;;9.60;99.90;;;;;;5094406;28;20051;-78
2023/01/07 06:43:11;;;;;;;32.58;21.50;;;9.70;99.90;;;;;;5094279;28;20044;-79
2023/01/07 06:45:37;;;;;;;34.30;21.83;;;9.30;99.90;;;;;;5112479;28;20482;-78
2023/01/07 06:48:03;;;;;;;35.47;22.27;;;9.80;99.90;;;;;;5112340;28;20058;-79
2023/01/07 06:50:29;;;;;;;33.35;21.73;;;9.70;99.90;;;;;;5112380;28;20248;-79
2023/01/07 06:52:55;;;;;;;35.72;22.35;;;9.60;99.90;;;;;;5112465;28;20050;-78
2023/01/07 06:55:21;;;;;;;34.42;22.10;;;9.70;99.90;;;;;;5077539;28;20055;-77
2023/01/07 06:57:47;;;;;;;34.20;21.67;;;9.20;99.90;;;;;;5112413;28;20052;-78
2023/01/07 07:00:13;;;;;;;32.30;21.80;;;9.80;99.90;;;;;;5094270;28;20502;-78
2023/01/07 07:02:39;;;;;;;33.20;20.92;;;9.40;99.90;;;;;;5094043;28;20083;-80
2023/01/07 07:05:05;;;;;;;33.80;20.40;;;9.60;99.90;;;;;;5094009;28;20446;-78
2023/01/07 07:07:31;;;;;;;33.65;19.63;;;9.40;99.90;;;;;;5112564;28;20148;-78
2023/01/07 07:09:57;;;;;;;31.75;20.30;;;9.50;99.90;;;;;;5094723;28;20043;-78
2023/01/07 07:12:23;;;;;;;30.58;19.25;;;9.70;99.90;;;;;;5094225;28;20048;-79
2023/01/07 07:14:48;;;;;;;29.13;19.58;;;9.50;99.90;;;;;;5112348;28;20136;-78
2023/01/07 07:17:14;;;;;;;30.20;19.98;;;9.30;99.90;;;;;;5094351;28;20389;-79
2023/01/07 07:19:40;;;;;;;32.47;19.33;;;9.30;99.90;;;;;;5112491;28;20130;-78
2023/01/07 07:22:05;;;;;;;31.20;19.33;;;9.60;99.90;;;;;;5077714;28;20127;-78
2023/01/07 07:24:31;;;;;;;31.67;17.73;;;9.70;99.90;;;;;;5094123;28;20563;-79
2023/01/07 07:26:58;;;;;;;30.27;19.65;;;9.30;99.90;;;;;;5093894;28;20048;-77
2023/01/07 07:29:24;;;;;;;30.23;17.50;;;9.50;99.90;;;;;;5094053;28;20051;-80
2023/01/07 07:31:50;;;;;;;27.55;17.38;;;9.80;99.90;;;;;;5088842;28;20104;-79
2023/01/07 07:34:15;;;;;;;32.90;17.90;;;9.30;99.90;;;;;;5095708;28;20411;-79
2023/01/07 07:36:41;;;;;;;26.48;17.65;;;9.40;99.90;;;;;;5097339;28;20046;-78
2023/01/07 07:39:07;;;;;;;26.05;16.38;;;9.50;99.90;;;;;;5114989;28;20044;-79
2023/01/07 07:41:32;;;;;;;27.92;17.42;;;9.40;99.90;;;;;;5093826;28;20044;-78
2023/01/07 07:43:58;;;;;;;26.20;17.50;;;9.60;99.90;;;;;;5095035;28;20044;-79
2023/01/07 07:46:24;;;;;;;27.63;17.10;;;9.70;99.90;;;;;;5081148;28;20043;-79
2023/01/07 07:48:49;;;;;;;29.40;17.63;;;9.60;99.90;;;;;;5115149;28;20055;-80
2023/01/07 07:51:16;;;;;;;25.45;17.02;;;10.10;99.90;;;;;;5115008;28;20118;-76
2023/01/07 07:53:42;;;;;;;26.38;16.70;;;9.50;99.90;;;;;;5092028;28;20051;-81
2023/01/07 07:56:08;;;;;;;25.00;16.48;;;10.00;99.90;;;;;;5078749;28;20043;-78
2023/01/07 07:58:34;;;;;;;24.23;16.17;;;9.20;99.90;;;;;;5114692;28;20043;-80
2023/01/07 08:01:00;;;;;;;23.60;15.95;;;9.40;99.90;;;;;;5095802;28;20058;-80
2023/01/07 08:03:25;;;;;;;20.85;15.65;;;9.50;99.90;;;;;;5114983;28;20097;-81
2023/01/07 08:05:51;;;;;;;25.40;16.15;;;9.50;99.90;;;;;;5079993;28;20055;-79
2023/01/07 08:08:17;;;;;;;25.38;15.75;;;9.30;99.90;;;;;;5095967;28;20123;-81
2023/01/07 08:10:43;;;;;;;23.02;16.10;;;9.30;99.90;;;;;;5063084;28;20050;-81
2023/01/07 08:13:09;;;;;;;24.35;15.32;;;9.40;99.90;;;;;;5096467;28;20050;-78
2023/01/07 08:15:35;;;;;;;23.58;15.15;;;9.80;99.90;;;;;;5096134;28;20468;-78
2023/01/07 08:18:05;;;;;;;;;;;9.10;99.90;;;;;;5076576;28;20101;-80
2023/01/07 08:20:31;;;;;;;23.77;15.02;;;9.40;99.90;;;;;;5076011;28;19919;-80
2023/01/07 08:22:58;;;;;;;;;;;9.40;99.90;;;;;;5075045;28;20051;-79
2023/01/07 08:25:23;;;;;;;23.88;15.20;;;9.50;99.90;;;;;;5094437;28;19924;-81
2023/01/07 08:27:49;;;;;;;23.98;14.48;;;9.30;99.90;;;;;;5071666;28;20468;-79
2023/01/07 08:30:15;;;;;;;21.83;14.05;;;9.50;99.90;;;;;;5114193;28;20048;-80
2023/01/07 08:32:41;;;;;;;23.42;15.07;;;9.30;99.90;;;;;;5114599;28;20384;-79
2023/01/07 08:35:07;;;;;;;21.92;14.13;;;9.40;99.90;;;;;;5079665;28;20109;-79
2023/01/07 08:37:33;;;;;;;22.02;14.10;;;9.40;99.90;;;;;;5096116;28;20505;-79
2023/01/07 08:39:59;;;;;;;20.67;14.35;;;9.70;99.90;;;;;;5096061;28;20039;-80
2023/01/07 08:42:25;;;;;;;21.40;13.60;;;9.70;99.90;;;;;;5095611;28;20070;-81
2023/01/07 08:44:51;;;;;;;16.73;12.05;;;9.60;99.90;;;;;;5114058;28;20666;-79
2023/01/07 08:47:17;;;;;;;16.17;11.65;;;10.00;99.90;;;;;;5093552;28;20050;-81
2023/01/07 08:49:42;;;;;;;15.77;10.82;;;9.60;99.90;;;;;;5092819;28;20060;-79
2023/01/07 08:52:08;;;;;;;13.95;10.73;;;9.70;99.90;;;;;;5092993;28;20044;-79
2023/01/07 08:54:34;;;;;;;16.13;9.52;;;9.70;99.90;;;;;;5094085;28;20131;-80
2023/01/07 08:56:59;;;;;;;15.27;9.50;;;9.70;99.90;;;;;;5076173;28;20530;-79
2023/01/07 08:59:25;;;;;;;13.75;9.98;;;9.90;99.90;;;;;;5075824;28;20063;-81
2023/01/07 09:01:51;;;;;;;14.68;9.65;;;9.80;99.90;;;;;;5093071;28;20094;-80
2023/01/07 09:04:17;;;;;;;14.55;8.93;;;9.50;99.90;;;;;;5093071;28;20044;-79
2023/01/07 09:06:42;;;;;;;13.07;9.65;;;9.60;99.90;;;;;;5092910;28;20044;-79
2023/01/07 09:09:09;;;;;;;18.90;9.77;;;9.80;99.90;;;;;;5093892;28;20052;-80
2023/01/07 09:11:34;;;;;;;17.10;9.10;;;9.40;99.90;;;;;;5092504;28;20114;-81
2023/01/07 09:14:00;;;;;;;16.05;8.82;;;9.70;99.90;;;;;;5092172;28;20048;-79
2023/01/07 09:16:26;;;;;;;13.48;8.50;;;9.80;99.90;;;;;;5075868;28;20144;-80
2023/01/07 09:18:51;;;;;;;12.60;8.10;;;9.80;99.90;;;;;;5093784;28;20113;-81
2023/01/07 09:21:17;;;;;;;12.93;7.75;;;9.90;99.90;;;;;;5093656;28;20040;-80
2023/01/07 09:23:43;;;;;;;13.02;8.13;;;10.10;99.90;;;;;;5093595;28;20055;-80
2023/01/07 09:26:08;;;;;;;10.02;7.60;;;10.00;99.90;;;;;;5092280;28;20131;-85
2023/01/07 09:28:34;;;;;;;11.75;6.97;;;10.20;99.90;;;;;;5093306;28;20040;-79
2023/01/07 09:31:01;;;;;;;11.23;6.47;;;9.70;99.90;;;;;;5093454;28;20149;-80
2023/01/07 09:33:27;;;;;;;11.77;7.20;;;9.90;99.90;;;;;;5092307;28;20051;-81
2023/01/07 09:35:53;;;;;;;14.05;7.30;;;9.80;99.90;;;;;;5093218;28;20051;-80
2023/01/07 09:38:19;;;;;;;10.30;7.00;;;9.80;99.90;;;;;;5092212;28;20169;-81
2023/01/07 09:40:44;;;;;;;13.50;7.65;;;9.00;99.90;;;;;;5091664;28;20052;-81
2023/01/07 09:43:22;;;;;;;10.05;7.43;;;9.90;99.90;;;;;;5093218;28;20047;-81
2023/01/07 09:45:51;;;;;;;12.25;6.45;;;9.80;99.90;;;;;;5093118;28;20420;-81
2023/01/07 09:48:27;;;;;;;11.88;6.65;;;9.60;99.90;;;;;;5092714;28;20131;-80
2023/01/07 09:51:23;;;;;;;9.70;6.60;;;9.40;99.90;;;;;;5091561;28;20075;-80
2023/01/07 09:53:53;;;;;;;8.98;6.15;;;9.90;99.90;;;;;;5088589;28;20472;-81
2023/01/07 09:56:35;;;;;;;9.90;6.50;;;9.70;99.90;;;;;;5090978;28;20468;-80
2023/01/07 09:59:03;;;;;;;8.77;6.75;;;9.90;99.90;;;;;;5092634;28;20044;-81
2023/01/07 10:02:00;;;;;;;10.68;6.40;;;9.70;99.90;;;;;;5092777;28;20052;-81
2023/01/07 10:04:58;;;;;;;7.47;6.15;;;10.00;99.90;;;;;;5092783;28;20048;-80
2023/01/07 10:07:41;;;;;;;;;;;9.90;99.90;;;;;;5053707;28;20395;-78
2023/01/07 10:10:13;;;;;;;8.23;5.43;;;9.70;99.90;;;;;;5091200;28;19920;-79
2023/01/07 10:13:02;;;;;;;10.38;5.88;;;8.10;99.90;;;;;;5092710;28;20477;-81
2023/01/07 10:15:47;;;;;;;10.60;5.75;;;9.90;99.90;;;;;;5091582;28;20057;-81
2023/01/07 10:18:33;;;;;;;9.93;5.40;;;9.70;99.90;;;;;;5092405;28;20052;-79
2023/01/07 10:21:21;;;;;;;9.40;5.17;;;9.60;99.90;;;;;;5091577;28;20047;-81
2023/01/07 10:23:56;;;;;;;7.28;5.13;;;10.00;99.90;;;;;;5092544;28;20043;-80
2023/01/07 10:26:30;;;;;;;8.52;4.82;;;10.00;99.90;;;;;;5092240;28;20122;-84
2023/01/07 10:29:19;;;;;;;6.43;4.57;;;9.90;99.90;;;;;;5092436;28;20055;-81
2023/01/07 10:31:46;;;;;;;6.03;5.20;;;9.80;99.90;;;;;;5090160;28;20511;-81
2023/01/07 10:34:20;;;;;;;7.93;4.85;;;10.00;99.90;;;;;;5074379;28;20062;-79
2023/01/07 10:36:58;;;;;;;5.65;4.05;;;10.00;99.90;;;;;;5092229;28;20055;-81
2023/01/07 10:39:45;;;;;;;5.47;4.10;;;10.10;99.90;;;;;;5090868;28;20051;-79
2023/01/07 10:42:32;;;;;;;;;;;10.00;99.90;;;;;;5092374;28;20399;-84
2023/01/07 10:45:04;;;;;;;7.13;4.63;;;10.10;99.90;;;;;;5074185;28;19920;-83
2023/01/07 10:48:04;;;;;;;9.77;4.07;;;10.20;99.90;;;;;;5091059;28;20146;-80
2023/01/07 10:50:58;;;;;;;6.15;4.05;;;10.30;99.90;;;;;;5090435;28;20085;-81
2023/01/07 10:53:42;;;;;;;7.68;3.88;;;9.90;99.90;;;;;;5091706;28;20087;-81
2023/01/07 10:56:30;;;;;;;6.97;4.50;;;10.00;99.90;;;;;;5091085;28;20115;-76
2023/01/07 10:58:57;;;;;;;6.97;3.90;;;10.10;99.90;;;;;;5074223;28;20044;-84
2023/01/07 11:01:36;;;;;;;6.05;3.53;;;10.70;99.90;;;;;;5092212;28;20044;-80
2023/01/07 11:04:03;;;;;;;5.85;3.42;;;10.80;99.90;;;;;;5091189;28;20067;-79
2023/01/07 11:06:49;;;;;;;5.22;3.33;;;10.40;99.90;;;;;;5094658;28;20044;-79
2023/01/07 11:09:31;;;;;;;5.95;3.45;;;10.40;99.90;;;;;;5078917;28;20051;-80
2023/01/07 11:12:25;;;;;;;4.50;3.30;;;10.50;99.90;;;;;;5094882;28;20527;-79
2023/01/07 11:14:53;;;;;;;7.65;3.60;;;10.50;99.90;;;;;;5083277;28;20060;-77
2023/01/07 11:17:51;;;;;;;5.15;3.25;;;10.30;99.90;;;;;;5094839;28;20507;-79
2023/01/07 11:20:43;;;;;;;6.07;3.33;;;10.30;99.90;;;;;;5050755;28;20056;-78
2023/01/07 11:23:28;;;;;;;5.22;3.20;;;10.40;99.90;;;;;;5090150;28;20043;-78
2023/01/07 11:26:21;;;;;;;6.50;2.95;;;10.70;99.90;;;;;;5094090;28;20539;-79
2023/01/07 11:29:13;;;;;;;5.97;3.20;;;10.80;99.90;;;;;;5094573;28;20055;-80
2023/01/07 11:31:48;;;;;;;4.60;3.00;;;10.70;99.90;;;;;;5094649;28;20496;-81
2023/01/07 11:34:25;;;;;;;3.90;2.83;;;10.70;99.90;;;;;;5095484;28;20048;-80
2023/01/07 11:36:51;;;;;;;4.53;2.55;;;10.80;99.90;;;;;;5094232;28;20036;-78
2023/01/07 11:39:23;;;;;;;4.10;2.75;;;10.80;99.90;;;;;;5077580;28;20044;-76
2023/01/07 11:41:55;;;;;;;4.45;2.75;;;11.00;99.90;;;;;;5094626;28;20180;-77
2023/01/07 11:44:21;;;;;;;5.10;2.58;;;10.90;99.90;;;;;;5077463;28;20080;-81
2023/01/07 11:46:48;;;;;;;;;;;11.00;99.90;;;;;;5095868;28;20090;-80
2023/01/07 11:49:23;;;;;;;5.15;2.40;;;11.00;99.90;;;;;;5077246;28;19920;-78
2023/01/07 11:51:49;;;;;;;4.85;2.25;;;11.50;99.90;;;;;;5093898;28;20044;-76
2023/01/07 11:54:20;;;;;;;3.85;2.50;;;11.30;99.90;;;;;;5094034;28;20088;-80
2023/01/07 11:56:46;;;;;;;2.95;2.25;;;10.80;99.90;;;;;;5095161;28;20127;-79
2023/01/07 11:59:12;;;;;;;3.78;2.40;;;11.10;99.90;;;;;;5095207;28;20254;-75
2023/01/07 12:01:46;;;;;;;2.92;2.25;;;10.80;99.90;;;;;;5093996;28;20063;-78
2023/01/07 12:04:28;;;;;;;4.65;2.28;;;11.00;99.90;;;;;;5095155;28;20081;-77
2023/01/07 12:06:57;;;;;;;2.80;2.38;;;10.80;99.90;;;;;;5076801;28;20040;-80
2023/01/07 12:09:26;;;;;;;5.05;2.42;;;10.70;99.90;;;;;;5093730;28;20052;-79
2023/01/07 12:11:54;;;;;;;3.80;2.25;;;10.80;99.90;;;;;;5094973;28;20499;-79
2023/01/07 12:14:40;;;;;;;3.55;2.60;;;11.20;99.90;;;;;;5093827;28;20054;-77
2023/01/07 12:17:14;;;;;;;2.65;2.20;;;11.00;99.90;;;;;;5093686;28;20048;-77
2023/01/07 12:20:01;;;;;;;3.17;1.80;;;10.60;99.90;;;;;;5093464;28;20074;-79
2023/01/07 12:22:46;;;;;;;4.35;2.35;;;10.80;99.90;;;;;;5094135;28;20495;-80
2023/01/07 12:25:33;;;;;;;4.72;2.53;;;10.80;99.90;;;;;;5093464;28;20048;-81
2023/01/07 12:28:12;;;;;;;3.75;2.40;;;10.80;99.90;;;;;;5094748;28;20043;-78
2023/01/07 12:30:48;;;;;;;7.07;2.38;;;10.40;99.90;;;;;;5093376;28;20048;-81
2023/01/07 12:33:55;;;;;;;3.63;2.63;;;10.70;99.90;;;;;;5094681;28;20048;-77
2023/01/07 12:36:35;;;;;;;4.18;2.50;;;10.60;99.90;;;;;;5021498;28;20055;-77
2023/01/07 12:39:07;;;;;;;3.65;2.67;;;10.60;99.90;;;;;;5093513;28;20055;-80
2023/01/07 12:41:37;;;;;;;3.55;2.30;;;10.60;99.90;;;;;;5076516;28;20067;-79
2023/01/07 12:44:12;;;;;;;5.50;2.65;;;10.80;99.90;;;;;;5093370;28;20488;-82
2023/01/07 12:47:06;;;;;;;2.67;2.17;;;10.80;99.90;;;;;;5095164;28;20059;-78
2023/01/07 12:49:42;;;;;;;3.75;2.60;;;11.20;99.90;;;;;;5100061;28;20571;-79
2023/01/07 12:52:17;;;;;;;6.28;2.30;;;10.90;99.90;;;;;;5096740;28;20091;-80
2023/01/07 12:55:19;;;;;;;4.97;2.63;;;11.00;99.90;;;;;;5096790;28;20110;-83
2023/01/07 12:57:59;;;;;;;4.78;2.45;;;11.20;99.90;;;;;;5065135;28;20051;-79